Aérodrome :
LOGIN :

S'inscrire | Disclaimer

   EN    FR    IT 

 










Légende :    VFR   VFR Marginal   IFR   IFR Intensif   IFR Très Intensif
Visi : 
Plafond : 
>= 8 km
>= 3000ft
5 à 8 km
1000 à 3000 ft
1500m à 5 km
500 à 1000 ft
800 à 1500m
200 à 500 ft
< 800m
< 200 ft
Symboles :   Orages  Brouillard  Fortes neiges  Fortes précipitations  Vent > 20 kt
SIGMETs :   Divers  Orages  Givrage  Turbulence  Onde Orograph.  Cendres Volcan.







- Altitude de l'aérodrome : 309 ft
- Code IATA : FNI
- Voir les cartes d'approche


LFTW - Nîmes Garons

DERNIER METAR :
  • 210400Z AUTO 06004KT 3300 BR SCT003 19/18 Q1016 NOSIG

METARs EXPIRÉS :
  • 210330Z AUTO 04003KT 2400 BR NSC 19/18 Q1016 BECMG 4000 BR
  • 210300Z AUTO 04002KT 1700 0700 R18/P2000 BCFG NSC 18/17 Q1016 BECMG 4000 BR
  • 210230Z AUTO VRB02KT 5000 BR NSC 19/18 Q1016 NOSIG
  • 210200Z AUTO 12003KT 6000 NSC 20/19 Q1016
  • 210130Z AUTO 13005KT 5000 BR FEW003 20/19 Q1016

TAF TAF LFTW
Valide du 21 à 03h jusqu'au 22 à 03h UTC


210200Z 2103/2203 VRB03KT 4000 BR SCT005
BECMG 2108/2110 19008KT CAVOK
BECMG 2116/2118 33012KT
TEMPO 2118/2121 33015G25KT
Pas de NOTAMs connus pour ce terrain.



MET'MAP, la Météo Aéronautique d'un coup d'oeil ! - Copyright ORBIFLY Décembre 2007 - Disclaimer

ORBIFLY MET'MAP TEAM :

Programmation & Développement : Alexandra Zaïnal
Conception & Développement : Baudouin d'Aumeries
Co-Programmation & Développement : Marc-Olivier Méhu
Soutien technique & logistique : Manuel Goepfert

Contact : metmap@orbifly.com




SOURCES & CREDITS :

   NOAA